sensor_id;sensor_type;location;lat;lon;timestamp;pressure;altitude;pressure_sealevel;temperature;humidity
24160;BME280;62385;41.594;23.808;2023-04-23T00:00:16;95438.22;;;8.26;74.16
24160;BME280;62385;41.594;23.808;2023-04-23T00:02:46;95444.97;;;7.95;74.24
24160;BME280;62385;41.594;23.808;2023-04-23T00:05:14;95442.06;;;8.31;73.92
24160;BME280;62385;41.594;23.808;2023-04-23T00:07:41;95442.25;;;8.38;73.26
24160;BME280;62385;41.594;23.808;2023-04-23T00:10:08;95433.13;;;8.74;72.13
24160;BME280;62385;41.594;23.808;2023-04-23T00:12:34;95432.69;;;8.87;71.75
24160;BME280;62385;41.594;23.808;2023-04-23T00:15:02;95438.19;;;9.02;70.87
24160;BME280;62385;41.594;23.808;2023-04-23T00:17:28;95441.69;;;9.18;70.61
24160;BME280;62385;41.594;23.808;2023-04-23T00:19:53;95437.81;;;8.89;71.35
24160;BME280;62385;41.594;23.808;2023-04-23T00:22:19;95444.44;;;8.17;73.61
24160;BME280;62385;41.594;23.808;2023-04-23T00:24:45;95455.50;;;8.80;71.36
24160;BME280;62385;41.594;23.808;2023-04-23T00:27:11;95461.75;;;8.71;72.96
24160;BME280;62385;41.594;23.808;2023-04-23T00:29:37;95449.91;;;8.91;72.09
24160;BME280;62385;41.594;23.808;2023-04-23T00:32:03;95445.66;;;9.06;71.83
24160;BME280;62385;41.594;23.808;2023-04-23T00:34:29;95442.69;;;9.25;71.67
24160;BME280;62385;41.594;23.808;2023-04-23T00:36:55;95446.50;;;9.15;72.41
24160;BME280;62385;41.594;23.808;2023-04-23T00:39:20;95452.25;;;9.02;73.70
24160;BME280;62385;41.594;23.808;2023-04-23T00:41:46;95446.50;;;9.15;74.19
24160;BME280;62385;41.594;23.808;2023-04-23T00:44:13;95436.06;;;9.30;73.13
24160;BME280;62385;41.594;23.808;2023-04-23T00:46:38;95450.28;;;9.20;73.83
24160;BME280;62385;41.594;23.808;2023-04-23T00:49:05;95455.06;;;8.51;75.68
24160;BME280;62385;41.594;23.808;2023-04-23T00:51:31;95451.78;;;9.07;74.98
24160;BME280;62385;41.594;23.808;2023-04-23T00:53:57;95466.09;;;8.80;75.25
24160;BME280;62385;41.594;23.808;2023-04-23T00:56:23;95463.06;;;8.67;75.37
24160;BME280;62385;41.594;23.808;2023-04-23T00:58:50;95463.19;;;9.15;74.79
24160;BME280;62385;41.594;23.808;2023-04-23T01:01:17;95469.47;;;8.56;76.35
24160;BME280;62385;41.594;23.808;2023-04-23T01:03:47;95467.38;;;8.76;76.92
24160;BME280;62385;41.594;23.808;2023-04-23T01:06:14;95460.19;;;8.52;75.79
24160;BME280;62385;41.594;23.808;2023-04-23T01:08:42;95465.31;;;8.54;77.32
24160;BME280;62385;41.594;23.808;2023-04-23T01:11:08;95459.66;;;8.99;75.27
24160;BME280;62385;41.594;23.808;2023-04-23T01:13:34;95468.34;;;8.67;77.03
24160;BME280;62385;41.594;23.808;2023-04-23T01:16:00;95463.91;;;8.33;76.96
24160;BME280;62385;41.594;23.808;2023-04-23T01:18:26;95470.69;;;8.36;77.43
24160;BME280;62385;41.594;23.808;2023-04-23T01:20:52;95474.03;;;8.20;77.16
24160;BME280;62385;41.594;23.808;2023-04-23T01:23:20;95471.06;;;8.49;76.50
24160;BME280;62385;41.594;23.808;2023-04-23T01:25:46;95467.00;;;9.21;73.52
24160;BME280;62385;41.594;23.808;2023-04-23T01:28:12;95468.16;;;9.10;72.26
24160;BME280;62385;41.594;23.808;2023-04-23T01:30:41;95472.75;;;8.92;73.08
24160;BME280;62385;41.594;23.808;2023-04-23T01:33:09;95474.84;;;8.39;73.94
24160;BME280;62385;41.594;23.808;2023-04-23T01:35:35;95466.44;;;8.43;74.25
24160;BME280;62385;41.594;23.808;2023-04-23T01:38:02;95470.09;;;8.24;74.75
24160;BME280;62385;41.594;23.808;2023-04-23T01:40:29;95465.22;;;8.38;74.62
24160;BME280;62385;41.594;23.808;2023-04-23T01:42:56;95475.09;;;8.61;73.32
24160;BME280;62385;41.594;23.808;2023-04-23T01:45:21;95475.34;;;8.84;73.04
24160;BME280;62385;41.594;23.808;2023-04-23T01:47:47;95470.25;;;8.91;72.81
24160;BME280;62385;41.594;23.808;2023-04-23T01:50:13;95475.66;;;8.73;73.14
24160;BME280;62385;41.594;23.808;2023-04-23T01:52:40;95474.03;;;8.80;72.53
24160;BME280;62385;41.594;23.808;2023-04-23T01:55:07;95467.75;;;8.81;72.65
24160;BME280;62385;41.594;23.808;2023-04-23T01:57:35;95473.03;;;8.81;72.08
24160;BME280;62385;41.594;23.808;2023-04-23T02:00:06;95474.50;;;8.75;71.62
24160;BME280;62385;41.594;23.808;2023-04-23T02:02:38;95473.72;;;8.49;71.98
24160;BME280;62385;41.594;23.808;2023-04-23T02:05:10;95477.13;;;8.16;73.11
24160;BME280;62385;41.594;23.808;2023-04-23T02:07:36;95473.88;;;8.22;72.42
24160;BME280;62385;41.594;23.808;2023-04-23T02:10:02;95472.97;;;8.31;72.45
24160;BME280;62385;41.594;23.808;2023-04-23T02:12:29;95481.91;;;8.30;72.48
24160;BME280;62385;41.594;23.808;2023-04-23T02:14:55;95479.09;;;7.09;74.81
24160;BME280;62385;41.594;23.808;2023-04-23T02:17:21;95482.88;;;7.42;73.67
24160;BME280;62385;41.594;23.808;2023-04-23T02:19:50;95482.94;;;7.50;73.39
24160;BME280;62385;41.594;23.808;2023-04-23T02:22:16;95479.56;;;7.22;74.03
24160;BME280;62385;41.594;23.808;2023-04-23T02:24:42;95474.44;;;7.03;74.51
24160;BME280;62385;41.594;23.808;2023-04-23T02:27:09;95476.09;;;7.39;74.80
24160;BME280;62385;41.594;23.808;2023-04-23T02:29:37;95477.03;;;7.74;72.90
24160;BME280;62385;41.594;23.808;2023-04-23T02:32:04;95483.63;;;7.70;72.49
24160;BME280;62385;41.594;23.808;2023-04-23T02:34:30;95480.00;;;7.18;73.56
24160;BME280;62385;41.594;23.808;2023-04-23T02:36:55;95484.53;;;7.61;72.22
24160;BME280;62385;41.594;23.808;2023-04-23T02:39:21;95482.31;;;8.00;71.13
24160;BME280;62385;41.594;23.808;2023-04-23T02:41:47;95476.56;;;8.04;72.02
24160;BME280;62385;41.594;23.808;2023-04-23T02:44:12;95477.69;;;8.19;72.11
24160;BME280;62385;41.594;23.808;2023-04-23T02:46:38;95483.03;;;7.84;73.35
24160;BME280;62385;41.594;23.808;2023-04-23T02:49:04;95486.38;;;8.12;72.21
24160;BME280;62385;41.594;23.808;2023-04-23T02:51:31;95489.13;;;8.28;70.83
24160;BME280;62385;41.594;23.808;2023-04-23T02:53:58;95493.69;;;8.36;71.88
24160;BME280;62385;41.594;23.808;2023-04-23T02:56:24;95491.19;;;8.16;72.71
24160;BME280;62385;41.594;23.808;2023-04-23T02:58:50;95489.78;;;8.48;73.17
24160;BME280;62385;41.594;23.808;2023-04-23T03:01:16;95488.47;;;8.52;72.95
24160;BME280;62385;41.594;23.808;2023-04-23T03:03:41;95496.53;;;8.24;73.52
24160;BME280;62385;41.594;23.808;2023-04-23T03:06:07;95488.44;;;8.00;74.12
24160;BME280;62385;41.594;23.808;2023-04-23T03:08:33;95487.03;;;7.45;73.12
24160;BME280;62385;41.594;23.808;2023-04-23T03:10:59;95499.59;;;6.97;76.82
24160;BME280;62385;41.594;23.808;2023-04-23T03:13:25;95499.06;;;6.67;77.39
24160;BME280;62385;41.594;23.808;2023-04-23T03:15:52;95497.59;;;6.82;77.79
24160;BME280;62385;41.594;23.808;2023-04-23T03:18:24;95495.28;;;6.96;76.96
24160;BME280;62385;41.594;23.808;2023-04-23T03:20:52;95495.69;;;7.72;75.66
24160;BME280;62385;41.594;23.808;2023-04-23T03:23:17;95495.78;;;7.27;76.11
24160;BME280;62385;41.594;23.808;2023-04-23T03:25:44;95491.38;;;6.83;78.56
24160;BME280;62385;41.594;23.808;2023-04-23T03:28:10;95479.19;;;7.00;77.47
24160;BME280;62385;41.594;23.808;2023-04-23T03:30:36;95491.31;;;7.10;77.07
24160;BME280;62385;41.594;23.808;2023-04-23T03:33:02;95489.81;;;7.25;76.78
24160;BME280;62385;41.594;23.808;2023-04-23T03:35:28;95484.34;;;7.80;75.42
24160;BME280;62385;41.594;23.808;2023-04-23T03:37:56;95490.84;;;7.68;75.31
24160;BME280;62385;41.594;23.808;2023-04-23T03:40:22;95490.50;;;7.45;75.09
24160;BME280;62385;41.594;23.808;2023-04-23T03:42:52;95487.28;;;7.95;74.67
24160;BME280;62385;41.594;23.808;2023-04-23T03:45:24;95493.38;;;8.21;73.63
24160;BME280;62385;41.594;23.808;2023-04-23T03:47:51;95487.84;;;8.06;73.99
24160;BME280;62385;41.594;23.808;2023-04-23T03:50:17;95494.94;;;7.62;73.56
24160;BME280;62385;41.594;23.808;2023-04-23T03:52:48;95500.19;;;7.98;73.20
24160;BME280;62385;41.594;23.808;2023-04-23T03:55:28;95497.44;;;8.07;72.88
24160;BME280;62385;41.594;23.808;2023-04-23T03:57:54;95490.06;;;7.93;72.04
24160;BME280;62385;41.594;23.808;2023-04-23T04:00:22;95500.75;;;7.30;74.25
24160;BME280;62385;41.594;23.808;2023-04-23T04:02:49;95494.13;;;7.87;73.86
24160;BME280;62385;41.594;23.808;2023-04-23T04:05:15;95505.00;;;8.02;73.88
24160;BME280;62385;41.594;23.808;2023-04-23T04:07:41;95513.28;;;7.11;74.61
24160;BME280;62385;41.594;23.808;2023-04-23T04:10:06;95513.03;;;7.22;74.86
24160;BME280;62385;41.594;23.808;2023-04-23T04:12:33;95517.28;;;7.15;75.04
24160;BME280;62385;41.594;23.808;2023-04-23T04:14:58;95526.03;;;7.15;75.43
24160;BME280;62385;41.594;23.808;2023-04-23T04:17:24;95523.13;;;7.09;75.89
24160;BME280;62385;41.594;23.808;2023-04-23T04:19:50;95518.28;;;7.31;75.43
24160;BME280;62385;41.594;23.808;2023-04-23T04:22:16;95521.91;;;7.66;74.63
24160;BME280;62385;41.594;23.808;2023-04-23T04:24:41;95529.50;;;7.51;75.58
24160;BME280;62385;41.594;23.808;2023-04-23T04:27:07;95534.06;;;7.41;74.99
24160;BME280;62385;41.594;23.808;2023-04-23T04:29:33;95529.94;;;7.29;76.40
24160;BME280;62385;41.594;23.808;2023-04-23T04:32:00;95534.47;;;7.72;74.74
24160;BME280;62385;41.594;23.808;2023-04-23T04:34:27;95539.69;;;7.81;74.13
24160;BME280;62385;41.594;23.808;2023-04-23T04:36:52;95540.91;;;7.52;75.72
24160;BME280;62385;41.594;23.808;2023-04-23T04:39:19;95537.06;;;7.64;75.63
24160;BME280;62385;41.594;23.808;2023-04-23T04:41:46;95536.59;;;7.51;76.34
24160;BME280;62385;41.594;23.808;2023-04-23T04:44:12;95537.50;;;8.72;71.56
24160;BME280;62385;41.594;23.808;2023-04-23T04:46:41;95538.72;;;8.77;71.97
24160;BME280;62385;41.594;23.808;2023-04-23T04:49:10;95535.72;;;8.47;72.37
24160;BME280;62385;41.594;23.808;2023-04-23T04:51:37;95541.63;;;8.41;72.62
24160;BME280;62385;41.594;23.808;2023-04-23T04:54:03;95532.88;;;8.40;71.95
24160;BME280;62385;41.594;23.808;2023-04-23T04:56:29;95531.09;;;8.23;73.93
24160;BME280;62385;41.594;23.808;2023-04-23T04:58:54;95537.13;;;7.54;76.11
24160;BME280;62385;41.594;23.808;2023-04-23T05:01:21;95535.59;;;7.87;75.82
24160;BME280;62385;41.594;23.808;2023-04-23T05:03:49;95538.19;;;8.40;73.86
24160;BME280;62385;41.594;23.808;2023-04-23T05:06:15;95540.78;;;8.66;73.20
24160;BME280;62385;41.594;23.808;2023-04-23T05:08:42;95543.56;;;8.13;75.06
24160;BME280;62385;41.594;23.808;2023-04-23T05:11:17;95540.41;;;7.66;75.59
24160;BME280;62385;41.594;23.808;2023-04-23T05:13:43;95535.94;;;8.95;72.54
24160;BME280;62385;41.594;23.808;2023-04-23T05:16:09;95539.91;;;8.91;72.96
24160;BME280;62385;41.594;23.808;2023-04-23T05:18:37;95540.56;;;8.85;72.56
24160;BME280;62385;41.594;23.808;2023-04-23T05:21:02;95549.88;;;8.97;72.10
24160;BME280;62385;41.594;23.808;2023-04-23T05:23:28;95536.84;;;9.12;72.65
24160;BME280;62385;41.594;23.808;2023-04-23T05:25:53;95541.47;;;9.68;71.33
24160;BME280;62385;41.594;23.808;2023-04-23T05:28:22;95545.91;;;9.59;71.19
24160;BME280;62385;41.594;23.808;2023-04-23T05:30:49;95552.69;;;9.04;72.23
24160;BME280;62385;41.594;23.808;2023-04-23T05:33:14;95552.13;;;9.26;72.26
24160;BME280;62385;41.594;23.808;2023-04-23T05:35:40;95546.78;;;10.08;69.76
24160;BME280;62385;41.594;23.808;2023-04-23T05:38:06;95546.44;;;9.95;70.79
24160;BME280;62385;41.594;23.808;2023-04-23T05:40:32;95543.94;;;9.69;70.92
24160;BME280;62385;41.594;23.808;2023-04-23T05:42:58;95534.72;;;10.85;68.07
24160;BME280;62385;41.594;23.808;2023-04-23T05:45:24;95539.69;;;10.88;68.19
24160;BME280;62385;41.594;23.808;2023-04-23T05:47:50;95544.78;;;10.51;69.59
24160;BME280;62385;41.594;23.808;2023-04-23T05:50:16;95541.69;;;10.86;67.61
24160;BME280;62385;41.594;23.808;2023-04-23T05:52:42;95547.44;;;10.51;69.18
24160;BME280;62385;41.594;23.808;2023-04-23T05:55:08;95545.59;;;10.11;69.64
24160;BME280;62385;41.594;23.808;2023-04-23T05:57:37;95539.88;;;10.87;67.61
24160;BME280;62385;41.594;23.808;2023-04-23T06:00:04;95541.63;;;11.41;65.79
24160;BME280;62385;41.594;23.808;2023-04-23T06:02:38;95542.63;;;11.09;67.04
24160;BME280;62385;41.594;23.808;2023-04-23T06:05:05;95553.66;;;11.29;66.55
24160;BME280;62385;41.594;23.808;2023-04-23T06:07:32;95548.56;;;11.11;67.10
24160;BME280;62385;41.594;23.808;2023-04-23T06:09:58;95540.13;;;11.70;66.06
24160;BME280;62385;41.594;23.808;2023-04-23T06:12:23;95549.69;;;11.25;66.68
24160;BME280;62385;41.594;23.808;2023-04-23T06:14:51;95547.94;;;11.40;66.19
24160;BME280;62385;41.594;23.808;2023-04-23T06:17:17;95544.69;;;11.30;64.87
24160;BME280;62385;41.594;23.808;2023-04-23T06:19:42;95542.84;;;11.62;64.68
24160;BME280;62385;41.594;23.808;2023-04-23T06:22:08;95545.13;;;11.42;65.46
24160;BME280;62385;41.594;23.808;2023-04-23T06:24:35;95547.72;;;11.50;65.94
24160;BME280;62385;41.594;23.808;2023-04-23T06:27:01;95551.72;;;11.15;67.33
24160;BME280;62385;41.594;23.808;2023-04-23T06:29:32;95547.09;;;10.46;68.72
24160;BME280;62385;41.594;23.808;2023-04-23T06:32:01;95544.78;;;11.76;66.48
24160;BME280;62385;41.594;23.808;2023-04-23T06:34:28;95543.50;;;11.33;68.18
24160;BME280;62385;41.594;23.808;2023-04-23T06:36:53;95545.31;;;11.63;66.07
24160;BME280;62385;41.594;23.808;2023-04-23T06:39:20;95537.13;;;11.73;65.56
24160;BME280;62385;41.594;23.808;2023-04-23T06:41:46;95544.13;;;10.41;68.97
24160;BME280;62385;41.594;23.808;2023-04-23T06:44:19;95541.50;;;10.96;68.14
24160;BME280;62385;41.594;23.808;2023-04-23T06:46:51;95538.00;;;12.33;66.00
24160;BME280;62385;41.594;23.808;2023-04-23T06:49:17;95539.44;;;12.21;63.82
24160;BME280;62385;41.594;23.808;2023-04-23T06:51:42;95538.16;;;11.72;66.64
24160;BME280;62385;41.594;23.808;2023-04-23T06:54:08;95534.41;;;10.88;66.70
24160;BME280;62385;41.594;23.808;2023-04-23T06:56:34;95533.81;;;11.93;64.59
24160;BME280;62385;41.594;23.808;2023-04-23T06:58:59;95536.66;;;12.52;63.82
24160;BME280;62385;41.594;23.808;2023-04-23T07:01:25;95532.31;;;12.36;64.18
24160;BME280;62385;41.594;23.808;2023-04-23T07:03:51;95535.06;;;12.43;65.30
24160;BME280;62385;41.594;23.808;2023-04-23T07:06:19;95535.06;;;12.06;66.16
24160;BME280;62385;41.594;23.808;2023-04-23T07:08:48;95538.94;;;12.40;65.25
24160;BME280;62385;41.594;23.808;2023-04-23T07:11:14;95530.63;;;12.87;64.24
24160;BME280;62385;41.594;23.808;2023-04-23T07:13:40;95534.09;;;12.73;63.58
24160;BME280;62385;41.594;23.808;2023-04-23T07:16:06;95533.00;;;12.53;62.69
24160;BME280;62385;41.594;23.808;2023-04-23T07:18:32;95534.28;;;13.01;63.62
24160;BME280;62385;41.594;23.808;2023-04-23T07:20:57;95535.75;;;12.89;64.50
24160;BME280;62385;41.594;23.808;2023-04-23T07:23:24;95535.56;;;12.76;63.69
24160;BME280;62385;41.594;23.808;2023-04-23T07:25:51;95536.22;;;12.92;63.98
24160;BME280;62385;41.594;23.808;2023-04-23T07:28:17;95530.06;;;12.77;64.41
24160;BME280;62385;41.594;23.808;2023-04-23T07:30:42;95531.19;;;12.83;63.13
24160;BME280;62385;41.594;23.808;2023-04-23T07:33:09;95527.63;;;13.20;61.85
24160;BME280;62385;41.594;23.808;2023-04-23T07:35:35;95526.03;;;13.25;63.52
24160;BME280;62385;41.594;23.808;2023-04-23T07:38:01;95524.47;;;12.72;63.42
24160;BME280;62385;41.594;23.808;2023-04-23T07:40:26;95523.94;;;13.21;62.86
24160;BME280;62385;41.594;23.808;2023-04-23T07:42:53;95525.13;;;13.33;62.68
24160;BME280;62385;41.594;23.808;2023-04-23T07:45:19;95519.84;;;13.39;62.08
24160;BME280;62385;41.594;23.808;2023-04-23T07:47:44;95529.06;;;13.37;60.77
24160;BME280;62385;41.594;23.808;2023-04-23T07:50:13;95513.06;;;13.94;60.79
24160;BME280;62385;41.594;23.808;2023-04-23T07:52:39;95512.03;;;13.38;60.70
24160;BME280;62385;41.594;23.808;2023-04-23T07:55:05;95509.03;;;14.26;60.60
24160;BME280;62385;41.594;23.808;2023-04-23T07:57:31;95502.78;;;13.91;59.98
24160;BME280;62385;41.594;23.808;2023-04-23T07:59:56;95513.44;;;13.91;60.25
24160;BME280;62385;41.594;23.808;2023-04-23T08:02:23;95508.56;;;13.95;59.54
24160;BME280;62385;41.594;23.808;2023-04-23T08:04:51;95503.25;;;14.22;59.49
24160;BME280;62385;41.594;23.808;2023-04-23T08:07:17;95501.69;;;14.07;58.43
24160;BME280;62385;41.594;23.808;2023-04-23T08:09:42;95488.53;;;14.82;59.12
24160;BME280;62385;41.594;23.808;2023-04-23T08:12:08;95489.88;;;14.71;57.15
24160;BME280;62385;41.594;23.808;2023-04-23T08:14:34;95491.19;;;14.33;56.85
24160;BME280;62385;41.594;23.808;2023-04-23T08:17:05;95491.41;;;14.31;57.90
24160;BME280;62385;41.594;23.808;2023-04-23T08:19:31;95486.16;;;14.38;57.48
24160;BME280;62385;41.594;23.808;2023-04-23T08:21:58;95495.31;;;14.85;59.64
24160;BME280;62385;41.594;23.808;2023-04-23T08:24:24;95486.44;;;14.77;58.74
24160;BME280;62385;41.594;23.808;2023-04-23T08:26:50;95469.38;;;15.19;58.16
24160;BME280;62385;41.594;23.808;2023-04-23T08:29:16;95475.59;;;14.92;57.69
24160;BME280;62385;41.594;23.808;2023-04-23T08:31:41;95463.22;;;15.25;56.28
24160;BME280;62385;41.594;23.808;2023-04-23T08:34:07;95467.13;;;14.82;55.06
24160;BME280;62385;41.594;23.808;2023-04-23T08:36:32;95463.09;;;15.47;54.73
24160;BME280;62385;41.594;23.808;2023-04-23T08:38:58;95453.53;;;15.24;55.59
24160;BME280;62385;41.594;23.808;2023-04-23T08:41:30;95455.25;;;15.45;53.90
24160;BME280;62385;41.594;23.808;2023-04-23T08:44:19;95454.56;;;15.78;55.10
24160;BME280;62385;41.594;23.808;2023-04-23T08:46:47;95448.00;;;16.06;52.72
24160;BME280;62385;41.594;23.808;2023-04-23T08:49:17;95447.63;;;15.49;51.98
24160;BME280;62385;41.594;23.808;2023-04-23T08:51:58;95442.69;;;15.39;54.94
24160;BME280;62385;41.594;23.808;2023-04-23T08:54:36;95439.31;;;15.91;52.02
24160;BME280;62385;41.594;23.808;2023-04-23T08:57:44;95437.47;;;16.51;53.77
24160;BME280;62385;41.594;23.808;2023-04-23T09:30:27;95406.72;;;17.24;48.38
24160;BME280;62385;41.594;23.808;2023-04-23T09:37:33;95390.84;;;18.66;47.23
24160;BME280;62385;41.594;23.808;2023-04-23T09:40:44;95392.53;;;18.61;44.72
24160;BME280;62385;41.594;23.808;2023-04-23T09:43:10;95384.75;;;18.53;45.13
24160;BME280;62385;41.594;23.808;2023-04-23T09:45:35;95387.78;;;18.63;45.29
24160;BME280;62385;41.594;23.808;2023-04-23T09:48:02;95383.28;;;18.57;43.10
24160;BME280;62385;41.594;23.808;2023-04-23T09:50:36;95374.94;;;18.15;41.92
24160;BME280;62385;41.594;23.808;2023-04-23T09:53:09;95372.44;;;19.00;42.85
24160;BME280;62385;41.594;23.808;2023-04-23T09:55:36;95368.94;;;19.47;42.02
24160;BME280;62385;41.594;23.808;2023-04-23T09:58:12;95371.22;;;18.16;41.74
24160;BME280;62385;41.594;23.808;2023-04-23T10:00:40;95374.50;;;18.18;41.97
24160;BME280;62385;41.594;23.808;2023-04-23T10:03:06;95366.88;;;19.31;40.72
24160;BME280;62385;41.594;23.808;2023-04-23T10:05:37;95364.16;;;19.31;39.50
24160;BME280;62385;41.594;23.808;2023-04-23T10:08:04;95368.66;;;17.40;39.59
24160;BME280;62385;41.594;23.808;2023-04-23T10:10:30;95367.25;;;18.43;39.22
24160;BME280;62385;41.594;23.808;2023-04-23T10:12:58;95359.59;;;18.22;39.68
24160;BME280;62385;41.594;23.808;2023-04-23T10:15:25;95348.47;;;19.28;39.06
24160;BME280;62385;41.594;23.808;2023-04-23T10:17:51;95348.69;;;19.86;39.66
24160;BME280;62385;41.594;23.808;2023-04-23T10:20:19;95338.72;;;18.42;38.90
24160;BME280;62385;41.594;23.808;2023-04-23T10:22:45;95337.44;;;19.77;39.10
24160;BME280;62385;41.594;23.808;2023-04-23T10:25:11;95333.44;;;19.80;38.77
24160;BME280;62385;41.594;23.808;2023-04-23T10:27:40;95326.06;;;18.86;38.62
24160;BME280;62385;41.594;23.808;2023-04-23T10:30:06;95325.47;;;17.80;35.40
24160;BME280;62385;41.594;23.808;2023-04-23T10:32:33;95335.66;;;17.71;37.23
24160;BME280;62385;41.594;23.808;2023-04-23T10:34:59;95323.56;;;19.03;35.87
24160;BME280;62385;41.594;23.808;2023-04-23T10:37:25;95326.38;;;19.67;37.23
24160;BME280;62385;41.594;23.808;2023-04-23T10:40:06;95314.63;;;19.92;36.02
24160;BME280;62385;41.594;23.808;2023-04-23T10:42:34;95309.72;;;20.35;35.54
24160;BME280;62385;41.594;23.808;2023-04-23T10:44:59;95314.03;;;18.52;36.70
24160;BME280;62385;41.594;23.808;2023-04-23T10:47:25;95304.41;;;19.94;38.56
24160;BME280;62385;41.594;23.808;2023-04-23T10:49:51;95299.63;;;19.43;38.25
24160;BME280;62385;41.594;23.808;2023-04-23T10:52:18;95300.59;;;19.48;38.40
24160;BME280;62385;41.594;23.808;2023-04-23T10:54:51;95292.84;;;20.16;39.47
24160;BME280;62385;41.594;23.808;2023-04-23T10:57:20;95288.88;;;19.13;36.68
24160;BME280;62385;41.594;23.808;2023-04-23T10:59:54;95290.19;;;18.56;38.51
24160;BME280;62385;41.594;23.808;2023-04-23T11:02:22;95289.00;;;18.33;38.36
24160;BME280;62385;41.594;23.808;2023-04-23T11:04:56;95285.13;;;18.84;38.72
24160;BME280;62385;41.594;23.808;2023-04-23T11:07:31;95287.69;;;20.50;40.07
24160;BME280;62385;41.594;23.808;2023-04-23T11:10:10;95270.03;;;21.10;38.31
24160;BME280;62385;41.594;23.808;2023-04-23T11:12:38;95280.25;;;20.68;37.33
24160;BME280;62385;41.594;23.808;2023-04-23T11:15:12;95276.75;;;20.56;35.75
24160;BME280;62385;41.594;23.808;2023-04-23T11:20:10;95281.00;;;20.52;38.53
24160;BME280;62385;41.594;23.808;2023-04-23T11:25:06;95276.66;;;20.91;36.65
24160;BME280;62385;41.594;23.808;2023-04-23T11:27:33;95280.50;;;21.07;37.39
24160;BME280;62385;41.594;23.808;2023-04-23T11:30:01;95271.13;;;20.98;38.58
24160;BME280;62385;41.594;23.808;2023-04-23T11:32:28;95267.31;;;21.22;36.54
24160;BME280;62385;41.594;23.808;2023-04-23T11:34:54;95270.84;;;20.83;38.48
24160;BME280;62385;41.594;23.808;2023-04-23T11:37:19;95275.50;;;20.87;37.33
24160;BME280;62385;41.594;23.808;2023-04-23T11:39:45;95281.25;;;20.91;36.07
24160;BME280;62385;41.594;23.808;2023-04-23T11:42:16;95272.44;;;21.69;36.61
24160;BME280;62385;41.594;23.808;2023-04-23T11:44:45;95276.63;;;21.59;34.01
24160;BME280;62385;41.594;23.808;2023-04-23T11:47:14;95274.00;;;20.80;36.06
24160;BME280;62385;41.594;23.808;2023-04-23T11:49:43;95280.28;;;19.99;35.19
24160;BME280;62385;41.594;23.808;2023-04-23T11:52:09;95277.84;;;20.44;34.24
24160;BME280;62385;41.594;23.808;2023-04-23T11:54:35;95268.06;;;21.34;34.78
24160;BME280;62385;41.594;23.808;2023-04-23T11:57:01;95269.41;;;21.65;33.10
24160;BME280;62385;41.594;23.808;2023-04-23T11:59:31;95266.97;;;21.80;35.79
24160;BME280;62385;41.594;23.808;2023-04-23T12:01:57;95262.19;;;21.87;34.80
24160;BME280;62385;41.594;23.808;2023-04-23T12:04:25;95245.38;;;22.57;32.36
24160;BME280;62385;41.594;23.808;2023-04-23T12:06:53;95262.09;;;21.94;34.94
24160;BME280;62385;41.594;23.808;2023-04-23T12:09:24;95245.63;;;22.34;34.14
24160;BME280;62385;41.594;23.808;2023-04-23T12:11:50;95256.38;;;23.11;34.50
24160;BME280;62385;41.594;23.808;2023-04-23T12:14:16;95253.84;;;22.82;33.00
24160;BME280;62385;41.594;23.808;2023-04-23T12:16:44;95253.50;;;20.79;36.59
24160;BME280;62385;41.594;23.808;2023-04-23T12:19:15;95252.44;;;19.40;36.10
24160;BME280;62385;41.594;23.808;2023-04-23T12:21:50;95265.47;;;18.83;36.39
24160;BME280;62385;41.594;23.808;2023-04-23T12:24:25;95256.28;;;18.73;36.92
24160;BME280;62385;41.594;23.808;2023-04-23T12:26:53;95248.03;;;18.86;36.84
24160;BME280;62385;41.594;23.808;2023-04-23T12:29:24;95240.78;;;19.69;35.32
24160;BME280;62385;41.594;23.808;2023-04-23T12:31:51;95242.56;;;18.92;36.71
24160;BME280;62385;41.594;23.808;2023-04-23T12:34:17;95230.16;;;19.74;36.13
24160;BME280;62385;41.594;23.808;2023-04-23T12:36:48;95226.53;;;20.67;34.66
24160;BME280;62385;41.594;23.808;2023-04-23T12:39:34;95232.38;;;19.89;35.76
24160;BME280;62385;41.594;23.808;2023-04-23T12:42:02;95223.25;;;19.67;36.44
24160;BME280;62385;41.594;23.808;2023-04-23T12:44:36;95220.59;;;18.96;36.63
24160;BME280;62385;41.594;23.808;2023-04-23T12:47:11;95216.56;;;19.16;36.02
24160;BME280;62385;41.594;23.808;2023-04-23T12:49:40;95212.75;;;20.80;33.71
24160;BME280;62385;41.594;23.808;2023-04-23T12:52:06;95204.47;;;20.98;34.57
24160;BME280;62385;41.594;23.808;2023-04-23T12:54:34;95199.59;;;21.40;32.93
24160;BME280;62385;41.594;23.808;2023-04-23T12:57:05;95208.75;;;21.39;34.69
24160;BME280;62385;41.594;23.808;2023-04-23T12:59:31;95195.13;;;22.01;34.07
24160;BME280;62385;41.594;23.808;2023-04-23T13:01:58;95197.13;;;21.10;34.84
24160;BME280;62385;41.594;23.808;2023-04-23T13:04:27;95184.66;;;21.54;34.09
24160;BME280;62385;41.594;23.808;2023-04-23T13:06:53;95207.47;;;20.85;34.74
24160;BME280;62385;41.594;23.808;2023-04-23T13:09:19;95204.00;;;20.73;34.48
24160;BME280;62385;41.594;23.808;2023-04-23T13:11:46;95201.75;;;20.18;34.93
24160;BME280;62385;41.594;23.808;2023-04-23T13:14:14;95190.66;;;21.56;34.38
24160;BME280;62385;41.594;23.808;2023-04-23T13:16:41;95203.41;;;21.28;34.63
24160;BME280;62385;41.594;23.808;2023-04-23T13:19:07;95203.88;;;19.47;34.96
24160;BME280;62385;41.594;23.808;2023-04-23T13:21:33;95199.22;;;20.92;36.44
24160;BME280;62385;41.594;23.808;2023-04-23T13:23:58;95194.56;;;21.15;35.64
24160;BME280;62385;41.594;23.808;2023-04-23T13:26:25;95194.88;;;20.62;38.08
24160;BME280;62385;41.594;23.808;2023-04-23T13:28:50;95207.66;;;20.04;39.05
24160;BME280;62385;41.594;23.808;2023-04-23T13:31:16;95203.63;;;20.18;40.14
24160;BME280;62385;41.594;23.808;2023-04-23T13:33:41;95209.19;;;20.00;40.81
24160;BME280;62385;41.594;23.808;2023-04-23T13:36:07;95201.50;;;20.43;40.00